createdAt,value
2023-05-11T00:00:08.801Z,92620.00
2023-05-11T00:01:08.831Z,92620.00
2023-05-11T00:02:08.891Z,92620.00
2023-05-11T00:03:08.995Z,92620.00
2023-05-11T00:04:08.968Z,92620.00
2023-05-11T00:05:08.977Z,92620.00
2023-05-11T00:06:09.018Z,92618.00
2023-05-11T00:07:09.054Z,92620.00
2023-05-11T00:08:09.103Z,92618.00
2023-05-11T00:09:09.133Z,92616.00
2023-05-11T00:10:09.170Z,92616.00
2023-05-11T00:11:09.204Z,92616.00
2023-05-11T00:12:09.240Z,92614.00
2023-05-11T00:13:09.277Z,92614.00
2023-05-11T00:14:09.324Z,92614.00
2023-05-11T00:15:09.359Z,92612.00
2023-05-11T00:16:09.419Z,92610.00
2023-05-11T00:17:09.437Z,92608.00
2023-05-11T00:18:09.484Z,92610.00
2023-05-11T00:19:09.510Z,92612.00
2023-05-11T00:20:09.548Z,92608.00
2023-05-11T00:21:09.593Z,92606.00
2023-05-11T00:22:09.709Z,92606.00
2023-05-11T00:23:09.683Z,92602.00
2023-05-11T00:24:09.722Z,92604.00
2023-05-11T00:25:09.754Z,92604.00
2023-05-11T00:26:09.794Z,92602.00
2023-05-11T00:27:09.823Z,92602.00
2023-05-11T00:28:09.860Z,92602.00
2023-05-11T00:29:09.915Z,92598.00
2023-05-11T00:30:09.961Z,92600.00
2023-05-11T00:31:10.064Z,92598.00
2023-05-11T00:32:10.017Z,92598.00
2023-05-11T00:33:10.057Z,92598.00
2023-05-11T00:34:10.090Z,92598.00
2023-05-11T00:35:10.143Z,92598.00
2023-05-11T00:36:10.179Z,92594.00
2023-05-11T00:37:10.228Z,92596.00
2023-05-11T00:38:10.248Z,92598.00
2023-05-11T00:39:10.296Z,92596.00
2023-05-11T00:40:10.327Z,92596.00
2023-05-11T00:41:10.363Z,92594.00
2023-05-11T00:42:10.401Z,92592.00
2023-05-11T00:43:10.431Z,92592.00
2023-05-11T00:44:10.472Z,92591.00
2023-05-11T00:45:10.514Z,92591.00
2023-05-11T00:46:10.549Z,92592.00
2023-05-11T00:47:10.697Z,92592.00
2023-05-11T00:48:10.617Z,92592.00
2023-05-11T00:49:10.656Z,92594.00
2023-05-11T00:50:10.708Z,92592.00
2023-05-11T00:51:10.749Z,92592.00
2023-05-11T00:52:10.801Z,92592.00
2023-05-11T00:53:10.834Z,92591.00
2023-05-11T00:54:10.879Z,92592.00
2023-05-11T00:55:10.923Z,92592.00
2023-05-11T00:56:10.966Z,92591.00
2023-05-11T00:57:11.002Z,92591.00
2023-05-11T00:58:11.050Z,92594.00
2023-05-11T00:59:11.097Z,92592.00
2023-05-11T01:00:11.154Z,92591.00
2023-05-11T01:01:11.231Z,92594.00
2023-05-11T01:02:11.255Z,92594.00
2023-05-11T01:03:11.380Z,92592.00
2023-05-11T01:04:11.363Z,92594.00
2023-05-11T01:05:11.372Z,92594.00
2023-05-11T01:06:11.392Z,92594.00
2023-05-11T01:07:11.422Z,92594.00
2023-05-11T01:08:11.456Z,92596.00
2023-05-11T01:09:11.504Z,92594.00
2023-05-11T01:10:11.635Z,92594.00
2023-05-11T01:11:11.778Z,92592.00
2023-05-11T01:12:11.617Z,92592.00
2023-05-11T01:13:11.635Z,92592.00
2023-05-11T01:14:11.676Z,92591.00
2023-05-11T01:15:11.704Z,92592.00
2023-05-11T01:16:11.796Z,92591.00
2023-05-11T01:17:11.937Z,92591.00
2023-05-11T01:18:11.854Z,92591.00
2023-05-11T01:19:11.944Z,92591.00
2023-05-11T01:20:11.904Z,92589.00
2023-05-11T01:21:12.668Z,92589.00
2023-05-11T01:22:11.971Z,92589.00
2023-05-11T01:23:12.018Z,92587.00
2023-05-11T01:24:12.069Z,92589.00
2023-05-11T01:25:12.116Z,92589.00
2023-05-11T01:26:12.176Z,92591.00
2023-05-11T01:27:12.212Z,92589.00
2023-05-11T01:28:12.232Z,92591.00
2023-05-11T01:29:12.276Z,92587.00
2023-05-11T01:30:12.312Z,92587.00
2023-05-11T01:31:12.353Z,92587.00
2023-05-11T01:32:12.442Z,92587.00
2023-05-11T01:33:12.586Z,92585.00
2023-05-11T01:34:12.486Z,92587.00
2023-05-11T01:35:12.565Z,92585.00
2023-05-11T01:36:12.583Z,92585.00
2023-05-11T01:37:12.624Z,92585.00
2023-05-11T01:38:12.665Z,92585.00
2023-05-11T01:39:12.720Z,92587.00
2023-05-11T01:40:12.749Z,92587.00
2023-05-11T01:41:12.788Z,92587.00
2023-05-11T01:42:12.858Z,92585.00
2023-05-11T01:43:12.914Z,92585.00
2023-05-11T01:44:12.961Z,92585.00
2023-05-11T01:45:12.994Z,92583.00
2023-05-11T01:46:13.087Z,92583.00
2023-05-11T01:47:13.098Z,92583.00
2023-05-11T01:48:13.122Z,92583.00
2023-05-11T01:49:13.176Z,92581.00
2023-05-11T01:50:13.230Z,92583.00
2023-05-11T01:51:13.261Z,92581.00
2023-05-11T01:52:13.302Z,92583.00
2023-05-11T01:53:13.362Z,92581.00
2023-05-11T01:54:13.413Z,92581.00
2023-05-11T01:55:13.432Z,92581.00
2023-05-11T01:56:13.476Z,92577.00
2023-05-11T01:57:13.568Z,92579.00
2023-05-11T01:58:13.606Z,92581.00
2023-05-11T01:59:13.624Z,92579.00
2023-05-11T02:00:13.672Z,92581.00
2023-05-11T02:01:13.738Z,92581.00
2023-05-11T02:02:13.859Z,92579.00
2023-05-11T02:03:13.950Z,92579.00
2023-05-11T02:04:13.854Z,92579.00
2023-05-11T02:05:13.891Z,92581.00
2023-05-11T02:06:13.932Z,92579.00
2023-05-11T02:07:13.978Z,92579.00
2023-05-11T02:08:14.021Z,92579.00
2023-05-11T02:09:14.071Z,92579.00
2023-05-11T02:10:14.112Z,92579.00
2023-05-11T02:11:14.158Z,92579.00
2023-05-11T02:12:14.210Z,92579.00
2023-05-11T02:13:14.259Z,92579.00
2023-05-11T02:14:14.307Z,92581.00
2023-05-11T02:15:14.347Z,92569.00
2023-05-11T02:16:14.407Z,92579.00
2023-05-11T02:17:14.440Z,92569.00
2023-05-11T02:18:14.496Z,92569.00
2023-05-11T02:19:14.542Z,92577.00
2023-05-11T02:20:14.594Z,92577.00
2023-05-11T02:21:14.637Z,92579.00
2023-05-11T02:22:14.693Z,92569.00
2023-05-11T02:23:14.738Z,92565.00
2023-05-11T02:24:14.794Z,92565.00
2023-05-11T02:25:14.832Z,92563.00
2023-05-11T02:26:14.887Z,92563.00
2023-05-11T02:27:14.927Z,92565.00
2023-05-11T02:28:14.982Z,92565.00
2023-05-11T02:29:15.033Z,92565.00
2023-05-11T02:30:15.113Z,92565.00
2023-05-11T02:31:15.162Z,92565.00
2023-05-11T02:32:15.170Z,92565.00
2023-05-11T02:33:15.206Z,92563.00
2023-05-11T02:34:15.262Z,92561.00
2023-05-11T02:35:15.317Z,92561.00
2023-05-11T02:36:15.361Z,92561.00
2023-05-11T02:37:15.433Z,92559.00
2023-05-11T02:38:15.471Z,92561.00
2023-05-11T02:39:15.513Z,92561.00
2023-05-11T02:40:15.684Z,92561.00
2023-05-11T02:41:15.609Z,92559.00
2023-05-11T02:42:15.669Z,92561.00
2023-05-11T02:43:15.713Z,92559.00
2023-05-11T02:44:15.777Z,92561.00
2023-05-11T02:45:15.806Z,92561.00
2023-05-11T02:46:15.887Z,92563.00
2023-05-11T02:47:15.888Z,92561.00
2023-05-11T02:48:15.944Z,92563.00
2023-05-11T02:49:16.044Z,92563.00
2023-05-11T02:50:16.077Z,92561.00
2023-05-11T02:51:16.074Z,92561.00
2023-05-11T02:52:16.136Z,92561.00
2023-05-11T02:53:16.196Z,92563.00
2023-05-11T02:54:16.220Z,92563.00
2023-05-11T02:55:16.283Z,92563.00
2023-05-11T02:56:16.333Z,92563.00
2023-05-11T02:57:16.376Z,92563.00
2023-05-11T02:58:16.488Z,92561.00
2023-05-11T02:59:16.475Z,92563.00
2023-05-11T03:00:16.736Z,92563.00
2023-05-11T03:01:16.681Z,92565.00
2023-05-11T03:02:16.698Z,92563.00
2023-05-11T03:03:16.923Z,92563.00
2023-05-11T03:04:16.748Z,92559.00
2023-05-11T03:05:16.852Z,92559.00
2023-05-11T03:06:16.868Z,92559.00
2023-05-11T03:07:16.920Z,92558.00
2023-05-11T03:08:16.969Z,92558.00
2023-05-11T03:09:17.023Z,92559.00
2023-05-11T03:10:17.208Z,92558.00
2023-05-11T03:11:17.129Z,92559.00
2023-05-11T03:12:17.711Z,92556.00
2023-05-11T03:13:17.237Z,92556.00
2023-05-11T03:14:17.289Z,92556.00
2023-05-11T03:15:17.348Z,92556.00
2023-05-11T03:16:18.966Z,92556.00
2023-05-11T03:17:17.375Z,92552.00
2023-05-11T03:18:17.381Z,92552.00
2023-05-11T03:19:17.348Z,92552.00
2023-05-11T03:20:17.653Z,92552.00
2023-05-11T03:21:17.335Z,92552.00
2023-05-11T03:22:17.347Z,92554.00
2023-05-11T03:23:17.307Z,92552.00
2023-05-11T03:24:17.291Z,92552.00
2023-05-11T03:25:17.327Z,92552.00
2023-05-11T03:26:17.272Z,92552.00
2023-05-11T03:27:17.270Z,92552.00
2023-05-11T03:28:17.260Z,92552.00
2023-05-11T03:29:17.242Z,92550.00
2023-05-11T03:30:17.405Z,92550.00
2023-05-11T03:31:17.223Z,92552.00
2023-05-11T03:32:17.323Z,92552.00
2023-05-11T03:33:17.196Z,92548.00
2023-05-11T03:34:17.185Z,92550.00
2023-05-11T03:35:17.189Z,92550.00
2023-05-11T03:36:17.155Z,92548.00
2023-05-11T03:37:17.142Z,92544.00
2023-05-11T03:38:17.131Z,92544.00
2023-05-11T03:39:17.140Z,92546.00
2023-05-11T03:40:17.343Z,92544.00
2023-05-11T03:41:17.101Z,92544.00
2023-05-11T03:42:17.099Z,92544.00
2023-05-11T03:43:17.096Z,92540.00
2023-05-11T03:44:17.092Z,92542.00
2023-05-11T03:45:17.061Z,92540.00
2023-05-11T03:46:17.105Z,92540.00
2023-05-11T03:47:17.050Z,92538.00
2023-05-11T03:48:17.125Z,92536.00
2023-05-11T03:49:17.098Z,92536.00
2023-05-11T03:50:17.223Z,92536.00
2023-05-11T03:51:17.202Z,92538.00
2023-05-11T03:52:17.285Z,92536.00
2023-05-11T03:53:17.323Z,92536.00
2023-05-11T03:54:17.378Z,92536.00
2023-05-11T03:55:17.441Z,92536.00
2023-05-11T03:56:17.473Z,92536.00
2023-05-11T03:57:17.528Z,92534.00
2023-05-11T03:58:17.601Z,92532.00
2023-05-11T03:59:17.677Z,92530.00
2023-05-11T04:00:17.975Z,92530.00
2023-05-11T04:01:17.809Z,92530.00
2023-05-11T04:02:17.871Z,92528.00
2023-05-11T04:03:18.117Z,92528.00
2023-05-11T04:04:17.991Z,92528.00
2023-05-11T04:05:17.965Z,92528.00
2023-05-11T04:06:18.025Z,92528.00
2023-05-11T04:07:18.049Z,92526.00
2023-05-11T04:08:18.105Z,92528.00
2023-05-11T04:09:18.139Z,92530.00
2023-05-11T04:10:18.299Z,92530.00
2023-05-11T04:11:18.200Z,92532.00
2023-05-11T04:12:18.220Z,92530.00
2023-05-11T04:13:18.253Z,92532.00
2023-05-11T04:14:18.318Z,92532.00
2023-05-11T04:15:18.371Z,92532.00
2023-05-11T04:16:18.493Z,92528.00
2023-05-11T04:17:18.493Z,92528.00
2023-05-11T04:18:18.567Z,92530.00
2023-05-11T04:19:18.952Z,92526.00
2023-05-11T04:20:18.856Z,92526.00
2023-05-11T04:21:18.723Z,92524.00
2023-05-11T04:22:18.769Z,92524.00
2023-05-11T04:23:18.825Z,92526.00
2023-05-11T04:24:18.892Z,92522.00
2023-05-11T04:25:18.947Z,92522.00
2023-05-11T04:26:18.968Z,92524.00
2023-05-11T04:27:19.022Z,92522.00
2023-05-11T04:28:19.086Z,92522.00
2023-05-11T04:29:19.152Z,92522.00
2023-05-11T04:30:19.335Z,92522.00
2023-05-11T04:31:19.258Z,92522.00
2023-05-11T04:32:19.302Z,92522.00
2023-05-11T04:33:19.347Z,92522.00
2023-05-11T04:34:19.402Z,92524.00
2023-05-11T04:35:19.468Z,92524.00
2023-05-11T04:36:19.510Z,92526.00
2023-05-11T04:37:19.551Z,92526.00
2023-05-11T04:38:19.579Z,92528.00
2023-05-11T04:39:19.617Z,92524.00
2023-05-11T04:40:19.859Z,92528.00
2023-05-11T04:41:19.737Z,92524.00
2023-05-11T04:42:19.805Z,92528.00
2023-05-11T04:43:19.882Z,92524.00
2023-05-11T04:44:19.905Z,92524.00
2023-05-11T04:45:19.991Z,92524.00
2023-05-11T04:46:20.050Z,92522.00
2023-05-11T04:47:20.109Z,92520.00
2023-05-11T04:48:21.055Z,92520.00
2023-05-11T04:49:20.197Z,92520.00
2023-05-11T04:50:20.423Z,92524.00
2023-05-11T04:51:20.316Z,92518.00
2023-05-11T04:52:20.364Z,92518.00
2023-05-11T04:53:20.425Z,92518.00
2023-05-11T04:54:20.476Z,92520.00
2023-05-11T04:55:20.530Z,92524.00
2023-05-11T04:56:20.581Z,92524.00
2023-05-11T04:57:20.636Z,92524.00
2023-05-11T04:58:20.699Z,92526.00
2023-05-11T04:59:20.749Z,92526.00
2023-05-11T05:00:21.137Z,92526.00
2023-05-11T05:01:20.914Z,92530.00
2023-05-11T05:02:20.962Z,92528.00
2023-05-11T05:03:21.011Z,92530.00
2023-05-11T05:04:21.080Z,92528.00
2023-05-11T05:05:21.075Z,92534.00
2023-05-11T05:06:21.124Z,92532.00
2023-05-11T05:07:21.167Z,92532.00
2023-05-11T05:08:21.232Z,92532.00
2023-05-11T05:09:21.287Z,92530.00
2023-05-11T05:10:21.333Z,92530.00
2023-05-11T05:11:21.384Z,92530.00
2023-05-11T05:12:21.429Z,92528.00
2023-05-11T05:13:21.486Z,92528.00
2023-05-11T05:14:21.494Z,92528.00
2023-05-11T05:15:21.509Z,92528.00
2023-05-11T05:16:21.553Z,92526.00
2023-05-11T05:17:21.547Z,92530.00
2023-05-11T05:18:21.608Z,92528.00
2023-05-11T05:19:21.643Z,92528.00
2023-05-11T05:20:21.708Z,92528.00
2023-05-11T05:21:21.722Z,92526.00
2023-05-11T05:22:21.777Z,92522.00
2023-05-11T05:23:21.771Z,92520.00
2023-05-11T05:24:21.789Z,92526.00
2023-05-11T05:25:21.813Z,92520.00
2023-05-11T05:26:21.841Z,92522.00
2023-05-11T05:27:21.889Z,92520.00
2023-05-11T05:28:21.940Z,92520.00
2023-05-11T05:29:22.008Z,92520.00
2023-05-11T05:30:22.053Z,92520.00
2023-05-11T05:31:22.135Z,92524.00
2023-05-11T05:32:22.182Z,92522.00
2023-05-11T05:33:22.255Z,92522.00
2023-05-11T05:34:22.293Z,92524.00
2023-05-11T05:35:22.353Z,92526.00
2023-05-11T05:36:22.372Z,92524.00
2023-05-11T05:37:22.400Z,92524.00
2023-05-11T05:38:22.412Z,92526.00
2023-05-11T05:39:22.413Z,92524.00
2023-05-11T05:40:22.410Z,92522.00
2023-05-11T05:41:22.474Z,92524.00
2023-05-11T05:42:22.524Z,92528.00
2023-05-11T05:43:22.567Z,92526.00
2023-05-11T05:44:22.626Z,92526.00
2023-05-11T05:45:22.695Z,92526.00
2023-05-11T05:46:22.780Z,92526.00
2023-05-11T05:47:22.760Z,92524.00
2023-05-11T05:48:22.774Z,92524.00
2023-05-11T05:49:23.785Z,92524.00
2023-05-11T05:50:22.825Z,92522.00
2023-05-11T05:51:22.826Z,92518.00
2023-05-11T05:52:22.840Z,92516.00
2023-05-11T05:53:22.828Z,92520.00
2023-05-11T05:54:22.833Z,92518.00
2023-05-11T05:55:22.842Z,92520.00
2023-05-11T05:56:22.823Z,92520.00
2023-05-11T05:57:22.825Z,92522.00
2023-05-11T05:58:22.809Z,92524.00
2023-05-11T05:59:22.791Z,92522.00
2023-05-11T06:00:22.767Z,92524.00
2023-05-11T06:01:22.771Z,92524.00
2023-05-11T06:02:22.838Z,92524.00
2023-05-11T06:03:22.845Z,92522.00
2023-05-11T06:04:22.734Z,92520.00
2023-05-11T06:05:22.695Z,92520.00
2023-05-11T06:06:22.663Z,92518.00
2023-05-11T06:07:22.645Z,92520.00
2023-05-11T06:08:22.617Z,92524.00
2023-05-11T06:09:22.603Z,92524.00
2023-05-11T06:10:22.586Z,92524.00
2023-05-11T06:11:22.563Z,92524.00
2023-05-11T06:12:22.529Z,92526.00
2023-05-11T06:13:22.504Z,92522.00
2023-05-11T06:14:22.467Z,92524.00
2023-05-11T06:15:22.428Z,92528.00
2023-05-11T06:16:22.436Z,92522.00
2023-05-11T06:17:22.406Z,92522.00
2023-05-11T06:18:22.393Z,92526.00
2023-05-11T06:19:22.323Z,92524.00
2023-05-11T06:20:22.294Z,92524.00
2023-05-11T06:21:22.257Z,92524.00
2023-05-11T06:22:22.231Z,92522.00
2023-05-11T06:23:22.215Z,92520.00
2023-05-11T06:24:22.219Z,92520.00
2023-05-11T06:25:22.202Z,92524.00
2023-05-11T06:26:22.185Z,92528.00
2023-05-11T06:27:22.187Z,92530.00
2023-05-11T06:28:22.181Z,92528.00
2023-05-11T06:29:22.254Z,92522.00
2023-05-11T06:30:22.223Z,92524.00
2023-05-11T06:31:22.316Z,92524.00
2023-05-11T06:32:22.359Z,92518.00
2023-05-11T06:33:22.332Z,92518.00
2023-05-11T06:34:22.388Z,92520.00
2023-05-11T06:35:22.440Z,92520.00
2023-05-11T06:36:22.461Z,92520.00
2023-05-11T06:37:22.514Z,92520.00
2023-05-11T06:38:22.540Z,92520.00
2023-05-11T06:39:22.565Z,92522.00
2023-05-11T06:40:22.614Z,92524.00
2023-05-11T06:42:16.331Z,92518.00
2023-05-11T06:43:16.313Z,92514.00
2023-05-11T06:44:16.309Z,92514.00
2023-05-11T06:45:16.342Z,92514.00
2023-05-11T06:46:16.382Z,92514.00
2023-05-11T06:47:16.300Z,92514.00
2023-05-11T06:48:16.294Z,92518.00
2023-05-11T06:49:16.287Z,92520.00
2023-05-11T06:50:16.474Z,92520.00
2023-05-11T06:51:16.261Z,92520.00
2023-05-11T06:52:16.256Z,92522.00
2023-05-11T06:53:16.249Z,92522.00
2023-05-11T06:54:16.239Z,92522.00
2023-05-11T06:55:16.231Z,92520.00
2023-05-11T06:56:17.244Z,92520.00
2023-05-11T06:57:16.212Z,92522.00
2023-05-11T06:58:16.203Z,92524.00
2023-05-11T06:59:16.193Z,92524.00
2023-05-11T07:00:16.346Z,92522.00
2023-05-11T07:01:16.228Z,92524.00
2023-05-11T07:02:16.179Z,92520.00
2023-05-11T07:03:16.259Z,92514.00
2023-05-11T07:04:16.218Z,92516.00
2023-05-11T07:05:16.150Z,92514.00
2023-05-11T07:06:16.142Z,92514.00
2023-05-11T07:07:16.123Z,92516.00
2023-05-11T07:08:16.195Z,92514.00
2023-05-11T07:09:16.188Z,92514.00
2023-05-11T07:10:16.392Z,92512.00
2023-05-11T07:11:16.247Z,92514.00
2023-05-11T07:12:16.265Z,92516.00
2023-05-11T07:13:16.287Z,92516.00
2023-05-11T07:14:16.323Z,92516.00
2023-05-11T07:15:16.342Z,92514.00
2023-05-11T07:16:16.403Z,92514.00
2023-05-11T07:17:16.400Z,92512.00
2023-05-11T07:18:16.457Z,92516.00
2023-05-11T07:19:16.472Z,92514.00
2023-05-11T07:20:16.680Z,92516.00
2023-05-11T07:21:16.543Z,92518.00
2023-05-11T07:22:16.601Z,92518.00
2023-05-11T07:23:16.614Z,92516.00
2023-05-11T07:24:16.660Z,92518.00
2023-05-11T07:25:16.705Z,92520.00
2023-05-11T07:26:17.508Z,92516.00
2023-05-11T07:27:18.442Z,92516.00
2023-05-11T07:28:16.854Z,92514.00
2023-05-11T07:29:16.913Z,92514.00
2023-05-11T07:30:18.690Z,92512.00
2023-05-11T07:31:17.971Z,92512.00
2023-05-11T07:32:17.085Z,92516.00
2023-05-11T07:33:17.170Z,92514.00
2023-05-11T07:34:17.234Z,92512.00
2023-05-11T07:35:17.277Z,92514.00
2023-05-11T07:36:17.334Z,92512.00
2023-05-11T07:37:17.407Z,92512.00
2023-05-11T07:38:17.467Z,92514.00
2023-05-11T07:39:17.492Z,92510.00
2023-05-11T07:40:17.706Z,92512.00
2023-05-11T07:41:18.516Z,92512.00
2023-05-11T07:42:17.576Z,92507.00
2023-05-11T07:43:17.583Z,92507.00
2023-05-11T07:44:17.833Z,92508.00
2023-05-11T07:45:17.614Z,92507.00
2023-05-11T07:46:17.727Z,92505.00
2023-05-11T07:47:17.683Z,92508.00
2023-05-11T07:48:17.644Z,92507.00
2023-05-11T07:49:25.213Z,92508.00
2023-05-11T07:50:18.848Z,92512.00
2023-05-11T07:51:17.614Z,92508.00
2023-05-11T07:52:17.650Z,92510.00
2023-05-11T07:53:17.665Z,92514.00
2023-05-11T07:54:18.827Z,92510.00
2023-05-11T07:55:17.859Z,92512.00
2023-05-11T07:56:17.732Z,92514.00
2023-05-11T07:57:17.727Z,92512.00
2023-05-11T07:58:17.730Z,92512.00
2023-05-11T07:59:17.731Z,92510.00
2023-05-11T08:00:17.956Z,92507.00
2023-05-11T08:01:17.740Z,92508.00
2023-05-11T08:02:17.799Z,92508.00
2023-05-11T08:03:17.774Z,92508.00
2023-05-11T08:04:17.752Z,92505.00
2023-05-11T08:05:17.881Z,92505.00
2023-05-11T08:06:17.860Z,92505.00
2023-05-11T08:07:17.777Z,92505.00
2023-05-11T08:08:17.782Z,92508.00
2023-05-11T08:09:17.777Z,92508.00
2023-05-11T08:10:17.768Z,92505.00
2023-05-11T08:11:17.772Z,92507.00
2023-05-11T08:12:17.770Z,92505.00
2023-05-11T08:13:17.766Z,92505.00
2023-05-11T08:14:17.767Z,92501.00
2023-05-11T08:15:17.924Z,92501.00
2023-05-11T08:16:17.806Z,92505.00
2023-05-11T08:17:17.792Z,92505.00
2023-05-11T08:18:17.784Z,92503.00
2023-05-11T08:19:17.778Z,92505.00
2023-05-11T08:20:17.786Z,92507.00
2023-05-11T08:21:17.798Z,92503.00
2023-05-11T08:22:19.452Z,92505.00
2023-05-11T08:23:17.823Z,92503.00
2023-05-11T08:24:17.845Z,92507.00
2023-05-11T08:25:18.045Z,92505.00
2023-05-11T08:26:18.531Z,92505.00
2023-05-11T08:27:17.995Z,92505.00
2023-05-11T08:28:18.007Z,92503.00
2023-05-11T08:29:18.050Z,92508.00
2023-05-11T08:30:18.067Z,92505.00
2023-05-11T08:31:18.144Z,92503.00
2023-05-11T08:32:18.203Z,92501.00
2023-05-11T08:34:20.428Z,92501.00
2023-05-11T08:35:18.365Z,92501.00
2023-05-11T08:36:18.178Z,92499.00
2023-05-11T08:37:18.124Z,92503.00
2023-05-11T08:38:18.122Z,92503.00
2023-05-11T08:39:28.519Z,92499.00
2023-05-11T08:40:19.123Z,92501.00
2023-05-11T08:41:18.092Z,92503.00
2023-05-11T08:42:18.091Z,92503.00
2023-05-11T08:43:18.088Z,92501.00
2023-05-11T08:44:18.081Z,92499.00
2023-05-11T08:45:18.226Z,92499.00
2023-05-11T08:46:18.088Z,92503.00
2023-05-11T08:47:23.170Z,92501.00
2023-05-11T08:48:19.085Z,92503.00
2023-05-11T08:49:18.040Z,92501.00
2023-05-11T08:50:19.031Z,92499.00
2023-05-11T08:51:18.030Z,92495.00
2023-05-11T08:52:18.020Z,92493.00
2023-05-11T08:53:18.007Z,92493.00
2023-05-11T08:54:18.008Z,92493.00
2023-05-11T08:55:18.138Z,92491.00
2023-05-11T08:56:17.989Z,92495.00
2023-05-11T08:57:17.979Z,92491.00
2023-05-11T08:58:17.972Z,92491.00
2023-05-11T08:59:17.969Z,92493.00
2023-05-11T09:00:17.970Z,92493.00
2023-05-11T09:01:17.969Z,92491.00
2023-05-11T09:02:17.950Z,92495.00
2023-05-11T09:03:17.956Z,92493.00
2023-05-11T09:04:18.068Z,92491.00
2023-05-11T09:05:18.125Z,92489.00
2023-05-11T09:06:17.925Z,92489.00
2023-05-11T09:07:18.214Z,92487.00
2023-05-11T09:08:17.901Z,92485.00
2023-05-11T09:09:17.904Z,92487.00
2023-05-11T09:10:17.894Z,92485.00
2023-05-11T09:11:17.891Z,92487.00
2023-05-11T09:12:17.865Z,92491.00
2023-05-11T09:13:17.864Z,92487.00
2023-05-11T09:14:17.863Z,92487.00
2023-05-11T09:15:17.900Z,92485.00
2023-05-11T09:16:35.607Z,92479.00
2023-05-11T09:17:18.843Z,92477.00
2023-05-11T09:18:17.864Z,92477.00
2023-05-11T09:19:17.821Z,92475.00
2023-05-11T09:20:18.012Z,92475.00
2023-05-11T09:21:17.821Z,92479.00
2023-05-11T09:22:17.813Z,92477.00
2023-05-11T09:23:17.797Z,92477.00
2023-05-11T09:24:17.792Z,92483.00
2023-05-11T09:25:18.097Z,92483.00
2023-05-11T09:26:17.774Z,92481.00
2023-05-11T09:27:21.146Z,92483.00
2023-05-11T09:29:18.756Z,92481.00
2023-05-11T09:31:17.770Z,92477.00
2023-05-11T09:32:17.752Z,92473.00
2023-05-11T09:33:17.726Z,92473.00
2023-05-11T09:34:17.727Z,92469.00
2023-05-11T09:35:18.076Z,92473.00
2023-05-11T09:36:17.835Z,92473.00
2023-05-11T09:37:17.739Z,92473.00
2023-05-11T09:38:18.520Z,92473.00
2023-05-11T09:40:27.036Z,92471.00
2023-05-11T09:41:18.690Z,92469.00
2023-05-11T09:42:17.682Z,92467.00
2023-05-11T09:43:17.674Z,92467.00
2023-05-11T09:44:17.667Z,92467.00
2023-05-11T09:45:17.827Z,92465.00
2023-05-11T09:46:17.723Z,92463.00
2023-05-11T09:47:17.649Z,92463.00
2023-05-11T09:48:17.680Z,92467.00
2023-05-11T09:49:17.628Z,92463.00
2023-05-11T09:50:18.018Z,92463.00
2023-05-11T09:51:17.655Z,92463.00
2023-05-11T09:52:17.603Z,92457.00
2023-05-11T09:53:17.601Z,92461.00
2023-05-11T09:54:17.581Z,92459.00
2023-05-11T09:55:17.692Z,92457.00
2023-05-11T09:56:17.572Z,92454.00
2023-05-11T09:57:17.559Z,92456.00
2023-05-11T09:58:17.553Z,92457.00
2023-05-11T09:59:17.582Z,92459.00
2023-05-11T10:00:17.565Z,92461.00
2023-05-11T10:01:17.557Z,92459.00
2023-05-11T10:02:17.607Z,92457.00
2023-05-11T10:03:18.152Z,92456.00
2023-05-11T10:04:23.741Z,92456.00
2023-05-11T10:05:18.560Z,92450.00
2023-05-11T10:06:19.910Z,92448.00
2023-05-11T10:07:17.500Z,92444.00
2023-05-11T10:08:17.482Z,92444.00
2023-05-11T10:09:17.468Z,92440.00
2023-05-11T10:10:17.460Z,92442.00
2023-05-11T10:11:17.461Z,92440.00
2023-05-11T10:12:17.465Z,92444.00
2023-05-11T10:13:17.448Z,92442.00
2023-05-11T10:14:17.441Z,92440.00
2023-05-11T10:15:17.582Z,92438.00
2023-05-11T10:16:17.450Z,92436.00
2023-05-11T10:17:17.416Z,92434.00
2023-05-11T10:18:20.130Z,92430.00
2023-05-11T10:19:17.486Z,92432.00
2023-05-11T10:20:17.581Z,92434.00
2023-05-11T10:21:17.408Z,92432.00
2023-05-11T10:22:17.421Z,92432.00
2023-05-11T10:23:17.371Z,92434.00
2023-05-11T10:24:20.245Z,92434.00
2023-05-11T10:25:17.362Z,92428.00
2023-05-11T10:26:17.362Z,92424.00
2023-05-11T10:27:17.353Z,92422.00
2023-05-11T10:28:17.338Z,92424.00
2023-05-11T10:29:17.337Z,92426.00
2023-05-11T10:30:17.507Z,92422.00
2023-05-11T10:31:17.362Z,92418.00
2023-05-11T10:32:17.310Z,92424.00
2023-05-11T10:33:17.287Z,92420.00
2023-05-11T10:34:17.291Z,92418.00
2023-05-11T10:35:17.280Z,92414.00
2023-05-11T10:36:19.426Z,92416.00
2023-05-11T10:37:17.289Z,92410.00
2023-05-11T10:38:17.264Z,92410.00
2023-05-11T10:39:17.248Z,92412.00
2023-05-11T10:40:17.483Z,92412.00
2023-05-11T10:41:17.236Z,92410.00
2023-05-11T10:42:17.230Z,92410.00
2023-05-11T10:43:17.249Z,92408.00
2023-05-11T10:44:17.285Z,92406.00
2023-05-11T10:45:17.302Z,92403.00
2023-05-11T10:46:17.368Z,92405.00
2023-05-11T10:47:17.336Z,92405.00
2023-05-11T10:48:17.355Z,92401.00
2023-05-11T10:49:17.391Z,92397.00
2023-05-11T10:50:17.585Z,92395.00
2023-05-11T10:51:17.424Z,92391.00
2023-05-11T10:52:17.441Z,92393.00
2023-05-11T10:53:17.446Z,92391.00
2023-05-11T10:54:17.472Z,92383.00
2023-05-11T10:55:17.620Z,92385.00
2023-05-11T10:56:18.004Z,92383.00
2023-05-11T10:57:18.083Z,92389.00
2023-05-11T10:58:17.495Z,92387.00
2023-05-11T10:59:17.505Z,92383.00
2023-05-11T11:00:17.757Z,92387.00
2023-05-11T11:01:17.535Z,92381.00
2023-05-11T11:02:17.515Z,92381.00
2023-05-11T11:03:17.513Z,92375.00
2023-05-11T11:04:17.522Z,92379.00
2023-05-11T11:05:17.921Z,92379.00
2023-05-11T11:06:17.525Z,92377.00
2023-05-11T11:07:17.548Z,92377.00
2023-05-11T11:08:17.551Z,92379.00
2023-05-11T11:09:17.556Z,92379.00
2023-05-11T11:10:17.677Z,92375.00
2023-05-11T11:11:17.576Z,92377.00
2023-05-11T11:12:17.556Z,92377.00
2023-05-11T11:13:17.573Z,92379.00
2023-05-11T11:14:17.579Z,92375.00
2023-05-11T11:15:17.894Z,92377.00
2023-05-11T11:16:17.600Z,92377.00
2023-05-11T11:17:17.654Z,92373.00
2023-05-11T11:18:17.676Z,92375.00
2023-05-11T11:19:17.666Z,92385.00
2023-05-11T11:20:17.706Z,92371.00
2023-05-11T11:21:17.733Z,92371.00
2023-05-11T11:22:17.778Z,92373.00
2023-05-11T11:23:17.809Z,92369.00
2023-05-11T11:24:17.841Z,92377.00
2023-05-11T11:25:18.081Z,92367.00
2023-05-11T11:26:17.928Z,92369.00
2023-05-11T11:27:17.975Z,92367.00
2023-05-11T11:28:18.017Z,92367.00
2023-05-11T11:29:18.088Z,92367.00
2023-05-11T11:30:18.162Z,92365.00
2023-05-11T11:31:19.119Z,92367.00
2023-05-11T11:32:18.193Z,92369.00
2023-05-11T11:33:18.266Z,92367.00
2023-05-11T11:34:18.283Z,92373.00
2023-05-11T11:35:18.585Z,92373.00
2023-05-11T11:36:18.375Z,92371.00
2023-05-11T11:37:18.425Z,92373.00
2023-05-11T11:38:18.469Z,92369.00
2023-05-11T11:39:18.517Z,92373.00
2023-05-11T11:40:18.618Z,92369.00
2023-05-11T11:41:18.643Z,92367.00
2023-05-11T11:42:18.662Z,92367.00
2023-05-11T11:43:18.703Z,92371.00
2023-05-11T11:44:18.750Z,92367.00
2023-05-11T11:45:18.921Z,92367.00
2023-05-11T11:46:18.865Z,92365.00
2023-05-11T11:47:18.881Z,92361.00
2023-05-11T11:48:18.929Z,92363.00
2023-05-11T11:49:18.964Z,92365.00